createdAt,value
2022-12-25T00:01:22.921Z,100.00
2022-12-25T00:03:49.661Z,100.00
2022-12-25T00:06:16.217Z,100.00
2022-12-25T00:08:42.702Z,100.00
2022-12-25T00:11:11.310Z,99.75
2022-12-25T00:13:38.065Z,100.00
2022-12-25T00:16:13.496Z,100.00
2022-12-25T00:18:40.146Z,99.57
2022-12-25T00:21:06.904Z,99.69
2022-12-25T00:23:33.910Z,99.92
2022-12-25T00:26:03.303Z,100.00
2022-12-25T00:28:29.871Z,100.00
2022-12-25T00:30:56.437Z,100.00
2022-12-25T00:33:25.060Z,100.00
2022-12-25T00:36:01.074Z,100.00
2022-12-25T00:38:27.916Z,100.00
2022-12-25T00:40:54.536Z,100.00
2022-12-25T00:43:21.295Z,100.00
2022-12-25T00:45:57.579Z,100.00
2022-12-25T00:48:24.483Z,100.00
2022-12-25T00:50:54.998Z,100.00
2022-12-25T00:53:21.604Z,100.00
2022-12-25T00:55:53.900Z,100.00
2022-12-25T00:58:20.498Z,100.00
2022-12-25T01:00:47.800Z,100.00
2022-12-25T01:03:14.495Z,100.00
2022-12-25T01:05:41.095Z,100.00
2022-12-25T01:08:07.619Z,100.00
2022-12-25T01:10:35.271Z,100.00
2022-12-25T01:13:01.873Z,100.00
2022-12-25T01:15:28.450Z,100.00
2022-12-25T01:17:54.938Z,100.00
2022-12-25T01:20:21.573Z,100.00
2022-12-25T01:22:48.066Z,100.00
2022-12-25T01:25:14.630Z,100.00
2022-12-25T01:27:41.177Z,100.00
2022-12-25T01:30:07.993Z,100.00
2022-12-25T01:32:34.509Z,100.00
2022-12-25T01:35:01.016Z,100.00
2022-12-25T01:37:27.543Z,100.00
2022-12-25T01:39:54.127Z,100.00
2022-12-25T01:42:21.896Z,100.00
2022-12-25T01:44:48.728Z,100.00
2022-12-25T01:47:15.773Z,100.00
2022-12-25T01:49:42.575Z,100.00
2022-12-25T01:52:10.650Z,100.00
2022-12-25T01:54:38.729Z,100.00
2022-12-25T01:57:07.097Z,100.00
2022-12-25T01:59:33.596Z,100.00
2022-12-25T02:02:00.507Z,100.00
2022-12-25T02:04:40.066Z,100.00
2022-12-25T02:07:26.821Z,100.00
2022-12-25T02:09:53.512Z,100.00
2022-12-25T02:12:21.428Z,100.00
2022-12-25T02:14:48.479Z,100.00
2022-12-25T02:17:21.147Z,100.00
2022-12-25T02:20:01.907Z,100.00
2022-12-25T02:22:33.302Z,100.00
2022-12-25T02:25:11.842Z,100.00
2022-12-25T02:27:56.711Z,100.00
2022-12-25T02:30:23.302Z,100.00
2022-12-25T02:33:19.980Z,100.00
2022-12-25T02:35:47.702Z,100.00
2022-12-25T02:38:16.299Z,100.00
2022-12-25T02:40:43.847Z,100.00
2022-12-25T02:43:34.105Z,100.00
2022-12-25T02:46:26.715Z,100.00
2022-12-25T02:49:13.434Z,100.00
2022-12-25T02:52:19.708Z,100.00
2022-12-25T02:55:09.725Z,100.00
2022-12-25T02:57:56.227Z,100.00
2022-12-25T03:00:41.470Z,100.00
2022-12-25T03:03:27.388Z,100.00
2022-12-25T03:06:13.186Z,100.00
2022-12-25T03:08:40.467Z,100.00
2022-12-25T03:11:27.035Z,100.00
2022-12-25T03:13:54.701Z,100.00
2022-12-25T03:16:40.045Z,100.00
2022-12-25T03:19:26.600Z,100.00
2022-12-25T03:22:11.974Z,100.00
2022-12-25T03:24:57.523Z,99.87
2022-12-25T03:27:24.536Z,100.00
2022-12-25T03:30:09.570Z,99.82
2022-12-25T03:32:40.099Z,100.00
2022-12-25T03:35:25.346Z,100.00
2022-12-25T03:38:09.883Z,100.00
2022-12-25T03:41:01.339Z,100.00
2022-12-25T03:43:49.069Z,100.00
2022-12-25T03:46:34.586Z,100.00
2022-12-25T03:49:24.110Z,100.00
2022-12-25T03:52:09.149Z,100.00
2022-12-25T03:54:54.132Z,100.00
2022-12-25T03:57:39.597Z,99.14
2022-12-25T04:00:24.926Z,99.29
2022-12-25T04:03:10.160Z,99.08
2022-12-25T04:05:55.524Z,100.00
2022-12-25T04:08:40.706Z,100.00
2022-12-25T04:11:25.809Z,100.00
2022-12-25T04:14:10.912Z,100.00
2022-12-25T04:16:56.294Z,100.00
2022-12-25T04:19:41.549Z,100.00
2022-12-25T04:22:26.917Z,100.00
2022-12-25T04:25:12.290Z,100.00
2022-12-25T04:27:57.392Z,100.00
2022-12-25T04:30:42.593Z,100.00
2022-12-25T04:33:27.584Z,100.00
2022-12-25T04:36:09.168Z,100.00
2022-12-25T04:38:35.838Z,100.00
2022-12-25T04:41:02.524Z,100.00
2022-12-25T04:43:29.224Z,100.00
2022-12-25T04:45:56.181Z,100.00
2022-12-25T04:48:22.823Z,100.00
2022-12-25T04:50:49.337Z,100.00
2022-12-25T04:53:16.125Z,100.00
2022-12-25T04:55:42.744Z,100.00
2022-12-25T04:58:09.349Z,100.00
2022-12-25T05:00:35.842Z,100.00
2022-12-25T05:03:02.401Z,100.00
2022-12-25T05:05:29.142Z,100.00
2022-12-25T05:07:56.461Z,100.00
2022-12-25T05:10:22.959Z,100.00
2022-12-25T05:12:49.576Z,100.00
2022-12-25T05:15:16.105Z,100.00
2022-12-25T05:17:42.618Z,99.98
2022-12-25T05:20:09.164Z,100.00
2022-12-25T05:22:35.693Z,100.00
2022-12-25T05:25:02.379Z,100.00
2022-12-25T05:27:28.865Z,100.00
2022-12-25T05:29:55.404Z,100.00
2022-12-25T05:32:21.910Z,100.00
2022-12-25T05:34:48.541Z,100.00
2022-12-25T05:37:15.098Z,100.00
2022-12-25T05:39:41.602Z,100.00
2022-12-25T05:42:08.125Z,100.00
2022-12-25T05:44:34.665Z,100.00
2022-12-25T05:47:01.331Z,100.00
2022-12-25T05:49:28.021Z,99.39
2022-12-25T05:51:54.593Z,99.33
2022-12-25T05:54:21.121Z,99.40
2022-12-25T05:56:47.667Z,98.63
2022-12-25T05:59:14.162Z,99.18
2022-12-25T06:01:40.790Z,99.07
2022-12-25T06:04:12.360Z,99.04
2022-12-25T06:06:39.814Z,98.64
2022-12-25T06:09:06.604Z,98.25
2022-12-25T06:11:33.163Z,98.32
2022-12-25T06:13:59.664Z,98.13
2022-12-25T06:16:26.259Z,98.08
2022-12-25T06:18:53.036Z,98.37
2022-12-25T06:21:19.594Z,97.96
2022-12-25T06:23:46.339Z,97.93
2022-12-25T06:26:16.851Z,98.00
2022-12-25T06:28:43.450Z,98.29
2022-12-25T06:31:10.651Z,98.30
2022-12-25T06:33:37.215Z,98.68
2022-12-25T06:36:10.950Z,98.95
2022-12-25T06:38:37.525Z,98.28
2022-12-25T06:41:11.050Z,97.81
2022-12-25T06:43:37.757Z,96.98
2022-12-25T06:46:08.069Z,97.75
2022-12-25T06:48:35.040Z,98.30
2022-12-25T06:51:01.991Z,97.78
2022-12-25T06:53:33.522Z,98.03
2022-12-25T06:56:07.316Z,98.94
2022-12-25T06:58:33.846Z,98.83
2022-12-25T07:01:00.368Z,98.20
2022-12-25T07:03:27.455Z,97.76
2022-12-25T07:05:53.977Z,97.48
2022-12-25T07:08:20.478Z,98.52
2022-12-25T07:10:46.975Z,98.86
2022-12-25T07:13:13.516Z,98.58
2022-12-25T07:15:40.027Z,98.54
2022-12-25T07:18:06.521Z,98.82
2022-12-25T07:20:33.003Z,99.59
2022-12-25T07:22:59.498Z,99.32
2022-12-25T07:25:26.016Z,99.27
2022-12-25T07:27:52.599Z,99.67
2022-12-25T07:30:19.172Z,99.69
2022-12-25T07:32:50.097Z,99.43
2022-12-25T07:35:16.953Z,99.60
2022-12-25T07:37:43.526Z,99.34
2022-12-25T07:40:10.263Z,99.67
2022-12-25T07:42:36.854Z,99.73
2022-12-25T07:45:03.508Z,99.77
2022-12-25T07:47:30.141Z,99.40
2022-12-25T07:49:56.633Z,99.39
2022-12-25T07:52:23.165Z,99.79
2022-12-25T07:54:49.715Z,99.79
2022-12-25T07:57:16.271Z,99.53
2022-12-25T07:59:42.757Z,99.95
2022-12-25T08:02:10.339Z,100.00
2022-12-25T08:04:37.006Z,99.86
2022-12-25T08:07:03.503Z,100.00
2022-12-25T08:09:30.255Z,100.00
2022-12-25T08:11:56.865Z,100.00
2022-12-25T08:14:23.375Z,100.00
2022-12-25T08:16:50.104Z,100.00
2022-12-25T08:19:16.694Z,100.00
2022-12-25T08:21:43.198Z,100.00
2022-12-25T08:24:10.715Z,100.00
2022-12-25T08:26:37.286Z,100.00
2022-12-25T08:29:03.864Z,100.00
2022-12-25T08:31:30.520Z,100.00
2022-12-25T08:33:57.740Z,100.00
2022-12-25T08:36:24.284Z,99.25
2022-12-25T08:38:50.916Z,99.47
2022-12-25T08:41:17.469Z,99.59
2022-12-25T08:43:44.057Z,100.00
2022-12-25T08:46:10.587Z,100.00
2022-12-25T08:48:37.201Z,100.00
2022-12-25T08:51:04.238Z,100.00
2022-12-25T08:53:30.863Z,100.00
2022-12-25T08:55:58.189Z,100.00
2022-12-25T08:58:25.088Z,100.00
2022-12-25T09:00:51.659Z,100.00
2022-12-25T09:03:18.284Z,99.75
2022-12-25T09:05:44.896Z,99.63
2022-12-25T09:08:11.619Z,100.00
2022-12-25T09:10:38.147Z,100.00
2022-12-25T09:13:04.695Z,100.00
2022-12-25T09:15:31.569Z,100.00
2022-12-25T09:17:58.142Z,100.00
2022-12-25T09:20:24.670Z,100.00
2022-12-25T09:22:51.142Z,100.00
2022-12-25T09:25:17.915Z,100.00
2022-12-25T09:27:44.608Z,100.00
2022-12-25T09:30:11.251Z,100.00
2022-12-25T09:32:40.142Z,99.41
2022-12-25T09:35:09.612Z,99.44
2022-12-25T09:37:36.538Z,99.52
2022-12-25T09:40:03.487Z,99.60
2022-12-25T09:42:31.357Z,99.43
2022-12-25T09:44:59.544Z,99.56
2022-12-25T09:47:27.999Z,99.72
2022-12-25T09:49:57.491Z,99.86
2022-12-25T09:52:33.116Z,99.74
2022-12-25T09:55:00.466Z,99.78
2022-12-25T09:57:27.022Z,100.00
2022-12-25T09:59:56.614Z,100.00
2022-12-25T10:02:26.403Z,100.00
2022-12-25T10:04:56.599Z,100.00
2022-12-25T10:07:23.155Z,100.00
2022-12-25T10:10:04.760Z,99.90
2022-12-25T10:12:39.171Z,100.00
2022-12-25T10:15:24.557Z,100.00
2022-12-25T10:18:06.687Z,100.00
2022-12-25T10:20:53.681Z,100.00
2022-12-25T10:23:28.504Z,100.00
2022-12-25T10:25:55.425Z,100.00
2022-12-25T10:28:41.724Z,99.87
2022-12-25T10:31:19.458Z,99.88
2022-12-25T10:33:46.300Z,99.85
2022-12-25T10:36:14.076Z,100.00
2022-12-25T10:38:40.614Z,100.00
2022-12-25T10:41:09.901Z,100.00
2022-12-25T10:43:42.190Z,100.00
2022-12-25T10:46:12.619Z,100.00
2022-12-25T10:48:43.655Z,100.00
2022-12-25T10:51:10.306Z,100.00
2022-12-25T10:53:38.188Z,100.00
2022-12-25T10:56:05.337Z,100.00
2022-12-25T10:58:32.165Z,100.00
2022-12-25T11:01:00.181Z,100.00
2022-12-25T11:03:28.591Z,100.00
2022-12-25T11:05:55.340Z,100.00
2022-12-25T11:08:23.017Z,100.00
2022-12-25T11:10:53.303Z,100.00
2022-12-25T11:13:29.437Z,100.00
2022-12-25T11:16:18.023Z,100.00
2022-12-25T11:18:46.087Z,100.00
2022-12-25T11:21:19.918Z,100.00
2022-12-25T11:23:47.122Z,100.00
2022-12-25T11:26:14.051Z,100.00
2022-12-25T11:28:41.892Z,100.00
2022-12-25T11:31:09.640Z,100.00
2022-12-25T11:33:37.811Z,100.00
2022-12-25T11:36:08.278Z,100.00
2022-12-25T11:38:34.794Z,100.00
2022-12-25T11:41:01.486Z,100.00
2022-12-25T11:43:29.946Z,100.00
2022-12-25T11:46:03.402Z,100.00
2022-12-25T11:48:31.782Z,100.00
2022-12-25T11:50:59.526Z,100.00
2022-12-25T11:53:41.077Z,100.00
2022-12-25T11:56:28.148Z,100.00
2022-12-25T11:58:55.512Z,100.00
2022-12-25T12:01:35.739Z,100.00
2022-12-25T12:04:03.505Z,100.00
2022-12-25T12:06:32.940Z,100.00
2022-12-25T12:09:07.146Z,100.00
2022-12-25T12:11:36.585Z,100.00
2022-12-25T12:14:20.685Z,100.00
2022-12-25T12:16:47.369Z,100.00
2022-12-25T12:19:31.879Z,100.00
2022-12-25T12:21:59.077Z,100.00
2022-12-25T12:24:28.171Z,100.00
2022-12-25T12:27:01.435Z,100.00
2022-12-25T12:29:32.183Z,100.00
2022-12-25T12:32:00.249Z,100.00
2022-12-25T12:34:26.838Z,100.00
2022-12-25T12:36:59.854Z,100.00
2022-12-25T12:39:26.935Z,100.00
2022-12-25T12:41:53.506Z,100.00
2022-12-25T12:44:20.095Z,100.00
2022-12-25T12:46:54.317Z,100.00
2022-12-25T12:49:25.085Z,100.00
2022-12-25T12:52:02.502Z,100.00
2022-12-25T12:54:29.011Z,100.00
2022-12-25T12:56:56.768Z,100.00
2022-12-25T12:59:23.838Z,100.00
2022-12-25T13:01:50.492Z,100.00
2022-12-25T13:04:25.047Z,100.00
2022-12-25T13:06:51.545Z,100.00
2022-12-25T13:09:18.057Z,100.00
2022-12-25T13:11:44.625Z,100.00
2022-12-25T13:14:16.471Z,100.00
2022-12-25T13:16:44.292Z,100.00
2022-12-25T13:19:24.567Z,100.00
2022-12-25T13:21:58.325Z,100.00
2022-12-25T13:24:26.129Z,100.00
2022-12-25T13:26:52.743Z,100.00
2022-12-25T13:29:22.798Z,100.00
2022-12-25T13:31:49.543Z,100.00
2022-12-25T13:34:20.859Z,100.00
2022-12-25T13:36:47.398Z,100.00
2022-12-25T13:39:15.358Z,100.00
2022-12-25T13:42:06.937Z,100.00
2022-12-25T13:44:39.543Z,100.00
2022-12-25T13:47:16.139Z,100.00
2022-12-25T13:49:42.820Z,100.00
2022-12-25T13:52:10.227Z,100.00
2022-12-25T13:54:36.738Z,100.00
2022-12-25T13:57:03.251Z,100.00
2022-12-25T13:59:30.109Z,100.00
2022-12-25T14:01:57.828Z,100.00
2022-12-25T14:04:24.558Z,100.00
2022-12-25T14:06:51.542Z,100.00
2022-12-25T14:09:18.042Z,100.00
2022-12-25T14:11:45.906Z,100.00
2022-12-25T14:14:19.451Z,100.00
2022-12-25T14:16:48.721Z,100.00
2022-12-25T14:19:31.144Z,100.00
2022-12-25T14:22:04.906Z,100.00
2022-12-25T14:24:31.610Z,100.00
2022-12-25T14:27:13.555Z,100.00
2022-12-25T14:29:41.817Z,100.00
2022-12-25T14:32:10.869Z,100.00
2022-12-25T14:34:37.430Z,100.00
2022-12-25T14:37:03.910Z,100.00
2022-12-25T14:39:37.398Z,100.00
2022-12-25T14:42:19.188Z,100.00
2022-12-25T14:44:55.296Z,100.00
2022-12-25T14:47:22.010Z,100.00
2022-12-25T14:49:48.545Z,100.00
2022-12-25T14:52:26.178Z,100.00
2022-12-25T14:54:56.686Z,100.00
2022-12-25T14:57:38.770Z,100.00
2022-12-25T15:00:08.011Z,100.00
2022-12-25T15:02:40.279Z,100.00
2022-12-25T15:05:27.924Z,100.00
2022-12-25T15:08:10.985Z,100.00
2022-12-25T15:13:24.976Z,100.00
2022-12-25T15:15:52.984Z,100.00
2022-12-25T15:18:19.793Z,100.00
2022-12-25T15:20:46.306Z,100.00
2022-12-25T15:23:20.223Z,100.00
2022-12-25T15:25:51.051Z,100.00
2022-12-25T15:28:17.666Z,100.00
2022-12-25T15:30:44.286Z,100.00
2022-12-25T15:33:13.300Z,100.00
2022-12-25T15:35:39.924Z,100.00
2022-12-25T15:38:06.551Z,100.00
2022-12-25T15:40:33.131Z,100.00
2022-12-25T15:42:59.903Z,100.00
2022-12-25T15:45:27.512Z,100.00
2022-12-25T15:47:54.252Z,100.00
2022-12-25T15:50:21.033Z,100.00
2022-12-25T15:52:47.647Z,100.00
2022-12-25T15:55:14.513Z,100.00
2022-12-25T15:57:42.029Z,100.00
2022-12-25T16:00:11.067Z,100.00
2022-12-25T16:02:40.614Z,100.00
2022-12-25T16:05:10.487Z,100.00
2022-12-25T16:07:37.556Z,100.00
2022-12-25T16:10:05.230Z,100.00
2022-12-25T16:12:31.851Z,100.00
2022-12-25T16:14:58.540Z,100.00
2022-12-25T16:17:25.065Z,100.00
2022-12-25T16:19:51.607Z,100.00
2022-12-25T16:22:23.642Z,100.00
2022-12-25T16:24:50.353Z,100.00
2022-12-25T16:27:16.929Z,100.00
2022-12-25T16:29:43.670Z,100.00
2022-12-25T16:32:13.332Z,100.00
2022-12-25T16:34:40.688Z,100.00
2022-12-25T16:37:07.406Z,100.00
2022-12-25T16:39:33.902Z,100.00
2022-12-25T16:42:00.668Z,100.00
2022-12-25T16:44:27.252Z,100.00
2022-12-25T16:46:53.899Z,100.00
2022-12-25T16:49:20.477Z,100.00
2022-12-25T16:51:47.025Z,100.00
2022-12-25T16:54:13.495Z,100.00
2022-12-25T16:56:40.468Z,100.00
2022-12-25T16:59:07.060Z,100.00
2022-12-25T17:01:33.644Z,100.00
2022-12-25T17:04:03.483Z,100.00
2022-12-25T17:06:30.123Z,100.00
2022-12-25T17:08:57.628Z,100.00
2022-12-25T17:11:27.446Z,100.00
2022-12-25T17:13:54.323Z,100.00
2022-12-25T17:16:22.858Z,100.00
2022-12-25T17:18:52.735Z,100.00
2022-12-25T17:21:19.260Z,100.00
2022-12-25T17:23:45.796Z,100.00
2022-12-25T17:26:13.630Z,100.00
2022-12-25T17:28:40.321Z,100.00
2022-12-25T17:31:07.921Z,100.00
2022-12-25T17:33:38.227Z,100.00
2022-12-25T17:36:05.500Z,100.00
2022-12-25T17:38:32.354Z,100.00
2022-12-25T17:40:59.139Z,100.00
2022-12-25T17:43:25.822Z,100.00
2022-12-25T17:45:52.401Z,100.00
2022-12-25T17:48:19.085Z,100.00
2022-12-25T17:50:45.795Z,100.00
2022-12-25T17:53:12.477Z,100.00
2022-12-25T17:55:41.013Z,100.00
2022-12-25T17:58:08.114Z,100.00
2022-12-25T18:00:35.100Z,100.00
2022-12-25T18:03:08.817Z,100.00
2022-12-25T18:05:37.581Z,100.00
2022-12-25T18:08:05.220Z,100.00
2022-12-25T18:10:41.713Z,100.00
2022-12-25T18:13:09.813Z,100.00
2022-12-25T18:15:37.138Z,100.00
2022-12-25T18:18:03.989Z,100.00
2022-12-25T18:20:35.915Z,100.00
2022-12-25T18:23:06.025Z,100.00
2022-12-25T18:25:33.672Z,100.00
2022-12-25T18:28:02.482Z,100.00
2022-12-25T18:30:29.509Z,100.00
2022-12-25T18:32:56.077Z,100.00
2022-12-25T18:35:22.627Z,100.00
2022-12-25T18:37:49.266Z,100.00
2022-12-25T18:40:15.820Z,100.00
2022-12-25T18:42:43.303Z,100.00
2022-12-25T18:45:11.008Z,100.00
2022-12-25T18:47:37.545Z,100.00
2022-12-25T18:50:04.703Z,100.00
2022-12-25T18:52:49.767Z,100.00
2022-12-25T18:55:17.827Z,100.00
2022-12-25T18:57:44.527Z,100.00
2022-12-25T19:00:11.132Z,100.00
2022-12-25T19:02:37.753Z,100.00
2022-12-25T19:05:05.832Z,100.00
2022-12-25T19:07:32.416Z,100.00
2022-12-25T19:09:58.913Z,100.00
2022-12-25T19:12:25.487Z,100.00
2022-12-25T19:14:52.782Z,100.00
2022-12-25T19:17:19.379Z,100.00
2022-12-25T19:19:46.021Z,100.00
2022-12-25T19:22:12.551Z,99.98
2022-12-25T19:24:39.124Z,100.00
2022-12-25T19:27:05.839Z,100.00
2022-12-25T19:29:32.701Z,100.00
2022-12-25T19:31:59.300Z,100.00
2022-12-25T19:34:25.879Z,99.91
2022-12-25T19:36:52.398Z,100.00
2022-12-25T19:39:18.950Z,99.72
2022-12-25T19:41:47.307Z,99.62
2022-12-25T19:44:13.891Z,100.00
2022-12-25T19:46:40.721Z,100.00
2022-12-25T19:49:08.002Z,100.00
2022-12-25T19:51:38.341Z,100.00
2022-12-25T19:54:05.302Z,100.00
2022-12-25T19:56:32.134Z,100.00
2022-12-25T19:58:58.742Z,100.00
2022-12-25T20:01:26.669Z,100.00
2022-12-25T20:03:53.228Z,100.00
2022-12-25T20:06:29.675Z,99.57
2022-12-25T20:08:58.140Z,99.42
2022-12-25T20:11:25.713Z,100.00
2022-12-25T20:13:52.236Z,99.57
2022-12-25T20:16:18.796Z,99.10
2022-12-25T20:18:45.365Z,100.00
2022-12-25T20:21:14.046Z,99.47
2022-12-25T20:23:41.202Z,98.58
2022-12-25T20:26:07.775Z,98.16
2022-12-25T20:28:34.949Z,98.42
2022-12-25T20:31:05.431Z,99.00
2022-12-25T20:33:31.947Z,99.78
2022-12-25T20:36:01.327Z,99.94
2022-12-25T20:38:28.194Z,99.49
2022-12-25T20:41:26.241Z,98.96
2022-12-25T20:43:47.992Z,100.00
2022-12-25T20:46:14.513Z,100.00
2022-12-25T20:48:41.754Z,98.78
2022-12-25T20:51:18.235Z,98.57
2022-12-25T20:53:45.157Z,100.00
2022-12-25T20:56:12.124Z,100.00
2022-12-25T20:58:38.739Z,98.94
2022-12-25T21:01:06.420Z,98.58
2022-12-25T21:03:33.322Z,99.45
2022-12-25T21:06:00.051Z,99.03
2022-12-25T21:08:26.892Z,99.67
2022-12-25T21:10:55.670Z,99.46
2022-12-25T21:13:23.467Z,99.58
2022-12-25T21:15:50.750Z,99.68
2022-12-25T21:18:20.125Z,98.70
2022-12-25T21:20:47.194Z,98.37
2022-12-25T21:23:13.819Z,98.30
2022-12-25T21:25:40.797Z,97.64
2022-12-25T21:28:07.362Z,97.34
2022-12-25T21:30:34.097Z,97.13
2022-12-25T21:33:19.426Z,97.69
2022-12-25T21:35:45.993Z,98.29
2022-12-25T21:38:19.265Z,98.19
2022-12-25T21:40:45.947Z,99.14
2022-12-25T21:43:14.203Z,99.68
2022-12-25T21:45:40.933Z,100.00
2022-12-25T21:48:07.508Z,100.00
2022-12-25T21:50:52.766Z,100.00
2022-12-25T21:53:19.510Z,100.00
2022-12-25T21:56:04.506Z,99.50
2022-12-25T21:58:31.169Z,98.68
2022-12-25T22:01:01.598Z,98.34
2022-12-25T22:03:28.236Z,98.44
2022-12-25T22:06:21.450Z,99.04
2022-12-25T22:08:48.245Z,98.44
2022-12-25T22:11:33.324Z,98.12
2022-12-25T22:14:18.297Z,98.42
2022-12-25T22:17:03.418Z,98.73
2022-12-25T22:19:45.378Z,99.63
2022-12-25T22:22:12.419Z,99.54
2022-12-25T22:24:39.158Z,99.67
2022-12-25T22:27:05.745Z,99.90
2022-12-25T22:29:32.281Z,98.94
2022-12-25T22:31:59.006Z,98.72
2022-12-25T22:34:26.280Z,98.56
2022-12-25T22:36:52.913Z,98.20
2022-12-25T22:39:19.685Z,97.74
2022-12-25T22:41:46.251Z,97.67
2022-12-25T22:44:17.646Z,97.55
2022-12-25T22:46:44.827Z,97.67
2022-12-25T22:49:11.663Z,98.17
2022-12-25T22:51:38.180Z,97.70
2022-12-25T22:54:04.723Z,96.41
2022-12-25T22:56:31.330Z,97.14
2022-12-25T22:58:57.835Z,96.99
2022-12-25T23:01:26.442Z,97.46
2022-12-25T23:03:53.786Z,98.34
2022-12-25T23:06:20.736Z,98.52
2022-12-25T23:08:47.914Z,98.24
2022-12-25T23:11:14.418Z,98.52
2022-12-25T23:13:59.423Z,98.30
2022-12-25T23:16:26.176Z,98.35
2022-12-25T23:19:11.395Z,99.05
2022-12-25T23:21:56.861Z,98.54
2022-12-25T23:24:41.812Z,98.40
2022-12-25T23:27:08.495Z,97.87
2022-12-25T23:29:37.719Z,98.11
2022-12-25T23:32:04.594Z,98.01
2022-12-25T23:34:31.274Z,98.52
2022-12-25T23:36:57.896Z,98.41
2022-12-25T23:39:24.474Z,98.62
2022-12-25T23:41:51.035Z,98.22
2022-12-25T23:44:17.523Z,98.11
2022-12-25T23:46:52.545Z,98.28
2022-12-25T23:49:20.715Z,98.17
2022-12-25T23:51:47.466Z,97.80
2022-12-25T23:54:16.058Z,97.88
2022-12-25T23:56:42.974Z,98.26
2022-12-25T23:59:09.759Z,98.23
